createdAt,value
2023-04-22T00:01:43.396Z,4.17
2023-04-22T00:06:46.772Z,4.10
2023-04-22T00:11:49.976Z,4.07
2023-04-22T00:16:53.357Z,4.11
2023-04-22T00:21:56.907Z,4.14
2023-04-22T00:27:00.124Z,4.14
2023-04-22T00:32:03.848Z,4.13
2023-04-22T00:37:07.040Z,4.10
2023-04-22T00:42:10.730Z,4.07
2023-04-22T00:47:14.320Z,4.05
2023-04-22T00:52:17.585Z,4.03
2023-04-22T00:57:21.104Z,4.01
2023-04-22T01:02:25.574Z,3.95
2023-04-22T01:07:29.158Z,3.89
2023-04-22T01:12:32.065Z,3.81
2023-04-22T01:17:36.072Z,3.74
2023-04-22T01:22:45.741Z,3.67
2023-04-22T01:27:49.680Z,3.60
2023-04-22T01:32:53.389Z,3.53
2023-04-22T01:37:58.243Z,3.47
2023-04-22T01:43:02.163Z,3.41
2023-04-22T01:48:07.226Z,3.35
2023-04-22T01:53:11.923Z,3.30
2023-04-22T01:58:15.067Z,3.23
2023-04-22T02:03:18.209Z,3.17
2023-04-22T02:08:21.273Z,3.13
2023-04-22T02:13:24.484Z,3.10
2023-04-22T02:18:27.904Z,3.06
2023-04-22T02:23:31.472Z,3.02
2023-04-22T02:28:34.624Z,2.96
2023-04-22T02:33:37.855Z,2.90
2023-04-22T02:38:40.937Z,2.83
2023-04-22T02:43:46.526Z,2.78
2023-04-22T02:48:49.916Z,2.74
2023-04-22T02:53:53.320Z,2.68
2023-04-22T02:58:56.425Z,2.63
2023-04-22T03:04:00.187Z,2.56
2023-04-22T03:09:04.286Z,2.48
2023-04-22T03:14:07.380Z,2.41
2023-04-22T03:19:10.500Z,2.36
2023-04-22T03:24:13.902Z,2.34
2023-04-22T03:29:16.904Z,2.32
2023-04-22T03:34:20.021Z,2.30
2023-04-22T03:39:23.123Z,2.32
2023-04-22T03:44:26.194Z,2.34
2023-04-22T03:49:29.293Z,2.39
2023-04-22T03:54:32.432Z,2.45
2023-04-22T03:59:35.954Z,2.53
2023-04-22T04:04:39.571Z,2.66
2023-04-22T04:09:43.007Z,2.87
2023-04-22T04:14:46.093Z,3.97
2023-04-22T04:19:49.602Z,6.34
2023-04-22T04:24:52.909Z,8.72
2023-04-22T04:29:56.203Z,11.01
2023-04-22T04:35:00.251Z,13.18
2023-04-22T04:40:04.168Z,15.03
2023-04-22T04:45:09.606Z,16.56
2023-04-22T04:50:12.733Z,18.14
2023-04-22T04:55:16.730Z,19.38
2023-04-22T05:00:20.069Z,20.72
2023-04-22T05:05:23.180Z,21.87
2023-04-22T05:10:26.604Z,22.85
2023-04-22T05:15:30.310Z,23.80
2023-04-22T05:20:36.188Z,24.71
2023-04-22T05:25:40.434Z,25.40
2023-04-22T05:30:43.535Z,25.99
2023-04-22T05:35:46.937Z,26.50
2023-04-22T05:40:50.667Z,27.03
2023-04-22T05:45:53.793Z,27.67
2023-04-22T05:50:56.987Z,28.28
2023-04-22T05:56:00.320Z,28.89
2023-04-22T06:01:03.702Z,29.61
2023-04-22T06:06:07.721Z,30.39
2023-04-22T06:11:11.541Z,31.11
2023-04-22T06:16:14.651Z,31.84
2023-04-22T06:21:18.268Z,32.29
2023-04-22T06:26:21.881Z,33.04
2023-04-22T06:31:25.122Z,33.68
2023-04-22T06:36:30.473Z,34.04
2023-04-22T06:41:34.164Z,34.74
2023-04-22T06:46:39.765Z,35.22
2023-04-22T06:51:43.145Z,35.53
2023-04-22T06:56:46.580Z,35.97
2023-04-22T07:01:50.008Z,36.27
2023-04-22T07:06:53.951Z,36.48
2023-04-22T07:11:58.123Z,36.14
2023-04-22T07:17:01.337Z,35.45
2023-04-22T07:22:05.237Z,35.49
2023-04-22T07:27:08.915Z,35.77
2023-04-22T07:32:12.732Z,36.18
2023-04-22T07:37:16.217Z,36.72
2023-04-22T07:42:19.525Z,37.19
2023-04-22T07:47:23.154Z,37.41
2023-04-22T07:52:26.349Z,37.57
2023-04-22T07:57:29.643Z,36.76
2023-04-22T08:02:33.190Z,36.91
2023-04-22T08:07:36.591Z,37.59
2023-04-22T08:12:39.912Z,37.93
2023-04-22T08:17:43.644Z,38.04
2023-04-22T08:22:47.457Z,38.39
2023-04-22T08:27:52.599Z,38.17
2023-04-22T08:32:56.088Z,37.22
2023-04-22T08:37:59.320Z,35.34
2023-04-22T08:43:03.352Z,35.55
2023-04-22T08:48:09.806Z,36.52
2023-04-22T08:53:14.084Z,36.83
2023-04-22T08:58:18.203Z,37.32
2023-04-22T09:03:22.727Z,38.11
2023-04-22T09:08:26.862Z,38.33
2023-04-22T09:13:30.591Z,38.50
2023-04-22T09:18:41.269Z,38.49
2023-04-22T09:23:55.161Z,38.01
2023-04-22T09:29:00.935Z,37.25
2023-04-22T09:34:05.019Z,36.51
2023-04-22T09:39:08.950Z,35.76
2023-04-22T09:44:18.205Z,35.51
2023-04-22T09:49:22.022Z,35.21
2023-04-22T09:54:25.226Z,34.86
2023-04-22T09:59:30.067Z,34.19
2023-04-22T10:04:33.397Z,32.89
2023-04-22T10:09:37.314Z,31.19
2023-04-22T10:14:40.983Z,29.42
2023-04-22T10:19:47.818Z,28.03
2023-04-22T10:24:55.841Z,26.85
2023-04-22T10:29:58.946Z,25.90
2023-04-22T10:35:11.421Z,25.02
2023-04-22T10:40:19.100Z,24.30
2023-04-22T10:45:26.035Z,23.85
2023-04-22T10:50:33.022Z,23.54
2023-04-22T10:55:54.419Z,23.16
2023-04-22T11:01:03.375Z,22.92
2023-04-22T11:06:17.290Z,22.67
2023-04-22T11:11:20.840Z,22.38
2023-04-22T11:16:24.679Z,22.18
2023-04-22T11:21:28.167Z,22.02
2023-04-22T11:26:35.512Z,21.87
2023-04-22T11:31:39.112Z,21.78
2023-04-22T11:36:46.089Z,21.75
2023-04-22T11:41:49.292Z,21.66
2023-04-22T11:46:52.504Z,21.65
2023-04-22T11:51:57.178Z,21.65
2023-04-22T11:57:15.744Z,21.50
2023-04-22T12:02:19.090Z,21.48
2023-04-22T12:07:22.366Z,21.50
2023-04-22T12:12:28.964Z,21.52
2023-04-22T12:17:32.319Z,21.46
2023-04-22T12:22:36.765Z,21.35
2023-04-22T12:27:40.690Z,21.27
2023-04-22T12:32:44.104Z,21.23
2023-04-22T12:37:47.216Z,21.25
2023-04-22T12:42:50.451Z,21.24
2023-04-22T12:47:54.127Z,21.21
2023-04-22T12:52:57.453Z,21.21
2023-04-22T12:58:00.977Z,21.05
2023-04-22T13:03:04.376Z,20.91
2023-04-22T13:08:08.360Z,20.94
2023-04-22T13:18:18.056Z,21.02
2023-04-22T13:23:22.167Z,20.98
2023-04-22T13:28:26.149Z,20.99
2023-04-22T13:33:29.464Z,20.99
2023-04-22T13:38:44.793Z,20.90
2023-04-22T13:43:52.163Z,20.82
2023-04-22T13:48:57.024Z,20.84
2023-04-22T13:54:01.076Z,20.85
2023-04-22T13:59:04.449Z,20.78
2023-04-22T14:04:07.890Z,20.70
2023-04-22T14:09:11.897Z,20.58
2023-04-22T14:14:15.308Z,20.41
2023-04-22T14:19:19.078Z,20.21
2023-04-22T14:24:24.502Z,20.08
2023-04-22T14:29:30.462Z,20.00
2023-04-22T14:34:34.483Z,19.92
2023-04-22T14:39:37.807Z,19.86
2023-04-22T14:44:41.207Z,19.87
2023-04-22T14:49:44.415Z,19.82
2023-04-22T14:54:51.199Z,19.78
2023-04-22T14:59:55.028Z,19.81
2023-04-22T15:04:58.234Z,19.78
2023-04-22T15:10:02.413Z,19.71
2023-04-22T15:15:07.503Z,19.64
2023-04-22T15:20:12.412Z,19.57
2023-04-22T15:25:17.912Z,19.48
2023-04-22T15:30:21.455Z,19.36
2023-04-22T15:35:24.869Z,19.27
2023-04-22T15:40:28.067Z,19.22
2023-04-22T15:45:31.380Z,19.14
2023-04-22T15:50:35.092Z,19.08
2023-04-22T15:55:38.405Z,19.02
2023-04-22T16:00:43.712Z,18.95
2023-04-22T16:05:47.389Z,18.87
2023-04-22T16:10:51.575Z,18.75
2023-04-22T16:15:55.128Z,18.64
2023-04-22T16:21:00.517Z,18.55
2023-04-22T16:26:05.964Z,18.45
2023-04-22T16:31:10.930Z,18.34
2023-04-22T16:36:14.207Z,18.25
2023-04-22T16:41:17.617Z,18.13
2023-04-22T16:46:20.850Z,18.01
2023-04-22T16:51:24.037Z,17.88
2023-04-22T16:56:27.552Z,17.72
2023-04-22T17:01:31.500Z,17.55
2023-04-22T17:06:34.687Z,17.38
2023-04-22T17:11:38.521Z,17.21
2023-04-22T17:16:42.030Z,17.00
2023-04-22T17:21:45.712Z,16.75
2023-04-22T17:26:48.953Z,16.49
2023-04-22T17:31:52.740Z,16.18
2023-04-22T17:36:56.084Z,15.88
2023-04-22T17:41:59.294Z,15.61
2023-04-22T17:47:03.977Z,15.31
2023-04-22T17:52:08.379Z,15.02
2023-04-22T17:57:12.715Z,14.71
2023-04-22T18:02:16.449Z,14.36
2023-04-22T18:07:20.712Z,14.02
2023-04-22T18:12:28.575Z,13.71
2023-04-22T18:17:36.307Z,13.41
2023-04-22T18:22:40.942Z,13.15
2023-04-22T18:27:44.759Z,12.91
2023-04-22T18:32:48.812Z,12.69
2023-04-22T18:37:52.302Z,12.46
2023-04-22T18:42:55.923Z,12.22
2023-04-22T18:47:59.282Z,11.98
2023-04-22T18:53:02.755Z,11.75
2023-04-22T18:58:06.567Z,11.54
2023-04-22T19:03:11.684Z,11.30
2023-04-22T19:08:15.252Z,11.12
2023-04-22T19:13:29.314Z,10.93
2023-04-22T19:18:33.852Z,10.71
2023-04-22T19:23:39.084Z,10.51
2023-04-22T19:28:47.315Z,10.33
2023-04-22T19:33:51.759Z,10.17
2023-04-22T19:38:55.971Z,10.04
2023-04-22T19:44:01.606Z,9.91
2023-04-22T19:49:07.115Z,9.74
2023-04-22T19:54:13.348Z,9.65
2023-04-22T19:59:20.428Z,9.65
2023-04-22T20:04:26.179Z,9.60
2023-04-22T20:09:33.364Z,9.46
2023-04-22T20:14:37.300Z,9.31
2023-04-22T20:19:41.661Z,9.14
2023-04-22T20:24:46.483Z,8.99
2023-04-22T20:29:50.445Z,8.88
2023-04-22T20:34:56.469Z,8.77
2023-04-22T20:40:06.195Z,8.63
2023-04-22T20:45:15.830Z,8.53
2023-04-22T20:50:21.082Z,8.41
2023-04-22T20:55:24.605Z,8.31
2023-04-22T21:00:28.995Z,8.23
2023-04-22T21:05:33.953Z,8.14
2023-04-22T21:10:38.072Z,8.05
2023-04-22T21:15:47.260Z,7.93
2023-04-22T21:20:51.960Z,7.81
2023-04-22T21:25:56.929Z,7.74
2023-04-22T21:31:01.290Z,7.73
2023-04-22T21:36:05.476Z,7.72
2023-04-22T21:41:09.302Z,7.67
2023-04-22T21:46:12.871Z,7.61
2023-04-22T21:51:17.890Z,7.56
2023-04-22T21:56:22.227Z,7.50
2023-04-22T22:01:26.800Z,7.42
2023-04-22T22:06:30.765Z,7.35
2023-04-22T22:11:34.435Z,7.30
2023-04-22T22:16:38.874Z,7.23
2023-04-22T22:21:42.132Z,7.16
2023-04-22T22:26:45.141Z,7.10
2023-04-22T22:31:48.402Z,7.06
2023-04-22T22:36:51.969Z,7.00
2023-04-22T22:41:55.785Z,6.93
2023-04-22T22:46:59.098Z,6.86
2023-04-22T22:52:02.248Z,6.80
2023-04-22T22:57:05.920Z,6.73
2023-04-22T23:02:09.316Z,6.71
2023-04-22T23:07:12.651Z,6.71
2023-04-22T23:12:15.749Z,6.72
2023-04-22T23:17:19.116Z,6.67
2023-04-22T23:22:23.400Z,6.61
2023-04-22T23:27:26.913Z,6.52
2023-04-22T23:32:32.631Z,6.43
2023-04-22T23:37:38.105Z,6.39
2023-04-22T23:42:41.464Z,6.35
2023-04-22T23:47:44.926Z,6.29
2023-04-22T23:52:48.176Z,6.24
2023-04-22T23:57:51.691Z,6.22
